createdAt,value
2023-03-23T16:00:44.431Z,57.40
2023-03-23T16:05:46.256Z,57.26
2023-03-23T16:10:47.697Z,57.44
2023-03-23T16:15:49.573Z,58.73
2023-03-23T16:20:51.034Z,57.96
2023-03-23T16:25:52.744Z,58.18
2023-03-23T16:30:54.241Z,58.79
2023-03-23T16:35:57.493Z,58.62
2023-03-23T16:40:59.338Z,59.10
2023-03-23T16:46:01.067Z,58.85
2023-03-23T16:51:02.544Z,59.31
2023-03-23T16:56:05.160Z,59.27
2023-03-23T17:01:07.339Z,58.76
2023-03-23T17:06:09.316Z,57.64
2023-03-23T17:11:11.477Z,58.02
2023-03-23T17:16:13.056Z,57.92
2023-03-23T17:21:14.618Z,57.45
2023-03-23T17:26:16.263Z,57.57
2023-03-23T17:31:17.747Z,57.31
2023-03-23T17:36:19.725Z,57.91
2023-03-23T17:41:21.452Z,58.54
2023-03-23T17:46:23.032Z,58.63
2023-03-23T17:51:24.582Z,59.08
2023-03-23T17:56:26.034Z,59.21
2023-03-23T18:01:27.727Z,59.21
2023-03-23T18:06:29.207Z,59.21
2023-03-23T18:11:30.781Z,59.46
2023-03-23T18:16:32.346Z,60.10
2023-03-23T18:21:33.807Z,60.51
2023-03-23T18:26:35.699Z,60.77
2023-03-23T18:31:40.155Z,59.98
2023-03-23T18:36:41.718Z,60.33
2023-03-23T18:41:43.172Z,60.41
2023-03-23T18:46:44.684Z,60.51
2023-03-23T18:51:46.127Z,60.65
2023-03-23T18:56:47.672Z,60.45
2023-03-23T19:01:49.742Z,60.32
2023-03-23T19:06:51.367Z,60.58
2023-03-23T19:11:52.863Z,60.86
2023-03-23T19:16:54.281Z,60.43
2023-03-23T19:21:55.861Z,61.06
2023-03-23T19:26:57.339Z,61.16
2023-03-23T19:31:58.971Z,60.63
2023-03-23T19:37:05.552Z,60.80
2023-03-23T19:42:08.812Z,61.01
2023-03-23T19:47:10.643Z,61.08
2023-03-23T19:52:14.450Z,61.25
2023-03-23T19:57:17.174Z,61.99
2023-03-23T20:02:18.706Z,62.46
2023-03-23T20:07:21.359Z,63.15
2023-03-23T20:12:22.919Z,62.86
2023-03-23T20:17:25.819Z,62.73
2023-03-23T20:22:27.380Z,62.69
2023-03-23T20:27:28.843Z,62.89
2023-03-23T20:32:33.062Z,63.36
2023-03-23T20:37:39.097Z,62.92
2023-03-23T20:42:43.814Z,63.07
2023-03-23T20:47:46.567Z,63.07
2023-03-23T20:52:48.020Z,63.48
2023-03-23T20:57:49.516Z,63.06
2023-03-23T21:02:54.089Z,63.43
2023-03-23T21:07:57.993Z,64.18
2023-03-23T21:12:59.970Z,64.19
2023-03-23T21:18:01.450Z,65.71
2023-03-23T21:23:05.749Z,64.95
2023-03-23T21:28:08.859Z,65.19
2023-03-23T21:33:10.377Z,65.52
2023-03-23T21:38:14.395Z,65.83
2023-03-23T21:43:16.831Z,66.43
2023-03-23T21:48:18.282Z,66.10
2023-03-23T21:53:20.502Z,66.54
2023-03-23T21:58:24.809Z,66.67
2023-03-23T22:03:26.693Z,66.65
2023-03-23T22:08:29.185Z,66.75
2023-03-23T22:13:32.914Z,66.98
2023-03-23T22:18:37.855Z,67.24
2023-03-23T22:23:39.869Z,67.25
2023-03-23T22:28:41.965Z,67.27
2023-03-23T22:33:43.706Z,67.73
2023-03-23T22:38:47.863Z,67.85
2023-03-23T22:43:49.397Z,68.29
2023-03-23T22:48:51.228Z,68.97
2023-03-23T22:53:52.763Z,69.05
2023-03-23T22:58:54.663Z,70.77
2023-03-23T23:03:56.259Z,70.10
2023-03-23T23:08:57.738Z,69.46
2023-03-23T23:13:59.207Z,69.45
2023-03-23T23:19:00.653Z,69.67
2023-03-23T23:24:02.087Z,69.72
2023-03-23T23:29:03.992Z,69.45
2023-03-23T23:34:06.154Z,69.75
2023-03-23T23:39:07.653Z,70.16
2023-03-23T23:44:09.148Z,70.42
2023-03-23T23:49:10.595Z,70.43
2023-03-23T23:54:14.823Z,69.58
2023-03-23T23:59:17.020Z,69.73
